PWSweather.com
Personal Weather Stations
Station Observations
WISCHPK61
Green Bay Schmitt Park, Green Bay, WI 54311

Green Bay Schmitt ParkGreen Bay, WI 54311

Lat: 44.514277, Lon: -87.935067

Elevation: 735

Station Type: Acu Rite Pro Weather Center model 02032C

http://greenbayweathercam.com

High Low Average
Temperature 76.3°F24.6°C 62.4°F16.9°C 66.8°F19.3°C
Dew Point 76.0°F24.4°C 62.1°F16.7°C 66.1°F18.9°C
Winds Calm Calm Calm Calm Calm SCalm S
Wind Gusts 2.3 mph3.7 kmh -- --
Humidity 99% 90% 98%
Pressure 28.95 in980.4 mb 28.81 in975.6 mb -
Precipitation 1.72 in43.7 mm - -
Hour Temp Dew Point Humidity Winds Wind Gusts Pressure Precip Precip Rate Daily Precip Total
12:00 AM 64.8°F18.2°C 64.5°F18.1°C 99% Calm Calm -- 28.97 in981.0 mb - 0.00 in0.0 mm 0.00 in0.0 mm
01:00 AM 64.9°F18.3°C 64.6°F18.1°C 99% Calm Calm -- 28.95 in980.4 mb - 0.00 in0.0 mm 0.00 in0.0 mm
02:00 AM 65.8°F18.8°C 65.5°F18.6°C 99% Calm Calm -- 28.94 in980.0 mb - 0.00 in0.0 mm 0.00 in0.0 mm
03:00 AM 65.5°F18.6°C 63.7°F17.6°C 94% Calm Calm -- 28.92 in979.3 mb - 0.00 in0.0 mm 0.00 in0.0 mm
04:00 AM 65.5°F18.6°C 64.9°F18.3°C 98% Calm Calm -- 28.91 in979.0 mb - 0.00 in0.0 mm 0.00 in0.0 mm
05:00 AM 64.9°F18.3°C 64.6°F18.1°C 99% Calm Calm -- 28.90 in978.7 mb - 0.00 in0.0 mm 0.00 in0.0 mm
06:00 AM 64.9°F18.3°C 64.0°F17.8°C 97% Calm Calm -- 28.89 in978.3 mb - 0.00 in0.0 mm 0.00 in0.0 mm
07:00 AM 65.8°F18.8°C 65.3°F18.5°C 98% Calm Calm -- 28.88 in978.0 mb - 0.00 in0.0 mm 0.00 in0.0 mm
08:00 AM 68.9°F20.5°C 68.6°F20.3°C 99% Calm Calm -- 28.88 in978.0 mb - 0.00 in0.0 mm 0.00 in0.0 mm
09:00 AM 70.9°F21.6°C 70.6°F21.4°C 99% Calm Calm -- 28.88 in978.0 mb - 0.00 in0.0 mm 0.00 in0.0 mm
10:00 AM 72.7°F22.6°C 72.4°F22.4°C 99% Calm Calm -- 28.88 in978.0 mb - 0.00 in0.0 mm 0.00 in0.0 mm
11:00 AM 73.8°F23.2°C 73.5°F23.1°C 99% Calm Calm 1.2 mph1.9 kmh 28.87 in977.7 mb - 0.00 in0.0 mm 0.00 in0.0 mm
12:00 PM 76.3°F24.6°C 76.0°F24.4°C 99% Calm Calm 2.3 mph3.7 kmh 28.85 in977.0 mb - 0.00 in0.0 mm 0.00 in0.0 mm
01:00 PM 69.0°F20.6°C 68.7°F20.4°C 99% Calm Calm -- 28.87 in977.7 mb - 0.24 in6.1 mm 0.24 in6.1 mm
02:00 PM 67.6°F19.8°C 66.1°F18.9°C 95% Calm Calm -- 28.81 in975.6 mb - 0.05 in1.3 mm 0.29 in7.4 mm
03:00 PM 68.2°F20.1°C 67.3°F19.6°C 97% Calm Calm -- 28.84 in976.6 mb - 0.00 in0.0 mm 0.29 in7.4 mm
04:00 PM 68.4°F20.2°C 65.4°F18.6°C 90% Calm Calm -- 28.83 in976.3 mb - 0.00 in0.0 mm 0.29 in7.4 mm
05:00 PM 67.2°F19.6°C 66.9°F19.4°C 99% Calm Calm -- 28.82 in976.0 mb - 0.36 in9.1 mm 0.65 in16.5 mm
06:00 PM 63.3°F17.4°C 62.7°F17.1°C 98% Calm Calm -- 28.83 in976.3 mb - 0.47 in11.9 mm 1.04 in26.4 mm
07:00 PM 64.4°F18.0°C 63.8°F17.7°C 98% Calm Calm -- 28.84 in976.6 mb - 0.00 in0.0 mm 1.04 in26.4 mm
08:00 PM 63.7°F17.6°C 63.4°F17.4°C 99% Calm Calm -- 28.85 in977.0 mb - 0.00 in0.0 mm 1.04 in26.4 mm
09:00 PM 63.1°F17.3°C 62.2°F16.8°C 97% Calm Calm -- 28.86 in977.3 mb - 0.00 in0.0 mm 1.04 in26.4 mm
10:00 PM 63.1°F17.3°C 62.5°F16.9°C 98% Calm Calm -- 28.88 in978.0 mb - 0.07 in1.8 mm 1.11 in28.2 mm
11:00 PM 62.8°F17.1°C 62.5°F16.9°C 99% Calm Calm -- 28.88 in978.0 mb - 0.61 in15.5 mm 1.72 in43.7 mm